createdAt,value
2023-03-20T00:01:21.729Z,102159.06
2023-03-20T00:03:26.695Z,102156.50
2023-03-20T00:05:32.571Z,102158.25
2023-03-20T00:07:38.238Z,102154.75
2023-03-20T00:09:42.924Z,102151.31
2023-03-20T00:11:50.968Z,102167.88
2023-03-20T00:14:00.208Z,102163.53
2023-03-20T00:16:05.742Z,102171.38
2023-03-20T00:18:18.455Z,102167.91
2023-03-20T00:20:23.930Z,102187.94
2023-03-20T00:22:29.577Z,102192.28
2023-03-20T00:24:34.257Z,102190.56
2023-03-20T00:26:40.212Z,102193.19
2023-03-20T00:28:46.789Z,102204.50
2023-03-20T00:30:53.956Z,102201.88
2023-03-20T00:33:00.150Z,102201.91
2023-03-20T00:35:16.560Z,102186.22
2023-03-20T00:37:21.187Z,102186.22
2023-03-20T00:39:26.579Z,102183.63
2023-03-20T00:41:34.270Z,102173.19
2023-03-20T00:43:39.023Z,102171.44
2023-03-20T00:45:43.922Z,102185.34
2023-03-20T00:47:53.155Z,102181.88
2023-03-20T00:49:58.686Z,102182.75
2023-03-20T00:52:04.979Z,102178.41
2023-03-20T00:54:17.129Z,102163.59
2023-03-20T00:56:33.373Z,102159.25
2023-03-20T00:58:38.888Z,102154.03
2023-03-20T01:00:46.138Z,102152.28
2023-03-20T01:02:54.460Z,102152.28
2023-03-20T01:04:59.863Z,102155.78
2023-03-20T01:07:04.646Z,102147.97
2023-03-20T01:09:09.775Z,102152.28
2023-03-20T01:11:16.506Z,102146.22
2023-03-20T01:13:24.389Z,102143.59
2023-03-20T01:15:33.859Z,102153.19
2023-03-20T01:17:39.156Z,102161.84
2023-03-20T01:19:46.733Z,102168.84
2023-03-20T01:21:51.631Z,102183.63
2023-03-20T01:23:56.216Z,102191.47
2023-03-20T01:26:00.980Z,102200.19
2023-03-20T01:28:17.082Z,102195.81
2023-03-20T01:30:25.448Z,102204.53
2023-03-20T01:32:30.044Z,102213.22
2023-03-20T01:34:36.201Z,102211.50
2023-03-20T01:36:52.568Z,102215.84
2023-03-20T01:39:00.034Z,102206.28
2023-03-20T01:41:08.789Z,102208.00
2023-03-20T01:43:18.646Z,102199.28
2023-03-20T01:45:27.244Z,102201.91
2023-03-20T01:47:32.304Z,102202.78
2023-03-20T01:50:19.124Z,102197.53
2023-03-20T01:52:26.945Z,102200.16
2023-03-20T01:54:34.805Z,102192.34
2023-03-20T01:56:44.679Z,102187.13
2023-03-20T01:58:54.411Z,102186.25
2023-03-20T02:00:59.240Z,102187.13
2023-03-20T02:03:04.175Z,102185.38
2023-03-20T02:05:12.073Z,102186.22
2023-03-20T02:07:21.763Z,102188.84
2023-03-20T02:09:29.049Z,102180.13
2023-03-20T02:11:34.425Z,102173.19
2023-03-20T02:13:39.595Z,102165.34
2023-03-20T02:16:03.012Z,102154.06
2023-03-20T02:18:07.632Z,102150.56
2023-03-20T02:20:24.485Z,102142.72
2023-03-20T02:23:06.379Z,102143.59
2023-03-20T02:25:53.966Z,102151.47
2023-03-20T02:28:22.838Z,102132.31
2023-03-20T02:30:49.555Z,102130.56
2023-03-20T02:33:26.356Z,102134.91
2023-03-20T02:36:10.766Z,102123.59
2023-03-20T02:38:35.899Z,102131.44
2023-03-20T02:40:46.991Z,102131.44
2023-03-20T02:42:58.941Z,102141.03
2023-03-20T02:45:16.615Z,102140.16
2023-03-20T02:47:26.625Z,102135.81
2023-03-20T02:49:56.164Z,102131.44
2023-03-20T02:52:06.075Z,102138.41
2023-03-20T02:54:20.698Z,102141.00
2023-03-20T02:56:31.242Z,102135.78
2023-03-20T02:58:41.890Z,102123.59
2023-03-20T03:00:53.288Z,102127.09
2023-03-20T03:03:04.307Z,102123.63
2023-03-20T03:05:19.072Z,102125.34
2023-03-20T03:07:28.346Z,102117.53
2023-03-20T03:09:41.488Z,102115.78
2023-03-20T03:11:49.510Z,102119.28
2023-03-20T03:13:57.588Z,102124.47
2023-03-20T03:16:06.815Z,102107.09
2023-03-20T03:18:17.392Z,102106.22
2023-03-20T03:20:26.193Z,102110.56
2023-03-20T03:22:32.038Z,102101.84
2023-03-20T03:24:42.046Z,102107.09
2023-03-20T03:26:47.205Z,102094.94
2023-03-20T03:28:55.840Z,102094.88
2023-03-20T03:31:02.145Z,102087.94
2023-03-20T03:33:17.275Z,102087.94
2023-03-20T03:35:24.757Z,102093.19
2023-03-20T03:37:44.166Z,102088.84
2023-03-20T03:39:56.654Z,102084.47
2023-03-20T03:42:10.567Z,102084.47
2023-03-20T03:44:23.357Z,102087.09
2023-03-20T03:46:34.486Z,102077.50
2023-03-20T03:48:45.160Z,102088.84
2023-03-20T03:50:57.318Z,102083.63
2023-03-20T03:53:07.486Z,102079.25
2023-03-20T03:55:19.389Z,102072.31
2023-03-20T03:57:31.268Z,102075.78
2023-03-20T03:59:39.864Z,102074.91
2023-03-20T04:01:45.612Z,102074.03
2023-03-20T04:03:54.869Z,102067.09
2023-03-20T04:06:01.619Z,102062.75
2023-03-20T04:08:11.135Z,102054.06
2023-03-20T04:10:19.402Z,102059.25
2023-03-20T04:12:38.106Z,102068.84
2023-03-20T04:14:42.773Z,102067.97
2023-03-20T04:16:47.481Z,102063.59
2023-03-20T04:18:52.853Z,102068.84
2023-03-20T04:20:57.501Z,102072.31
2023-03-20T04:23:02.212Z,102073.19
2023-03-20T04:25:08.565Z,102081.88
2023-03-20T04:27:17.024Z,102075.78
2023-03-20T04:29:21.746Z,102085.34
2023-03-20T04:31:26.448Z,102082.75
2023-03-20T04:33:32.253Z,102084.50
2023-03-20T04:35:38.841Z,102080.13
2023-03-20T04:37:44.279Z,102073.16
2023-03-20T04:39:49.877Z,102073.19
2023-03-20T04:41:54.638Z,102066.22
2023-03-20T04:44:01.960Z,102062.72
2023-03-20T04:46:06.921Z,102054.91
2023-03-20T04:48:12.014Z,102054.91
2023-03-20T04:50:16.899Z,102050.53
2023-03-20T04:52:21.645Z,102044.44
2023-03-20T04:54:26.422Z,102043.59
2023-03-20T04:56:31.086Z,102045.31
2023-03-20T04:58:36.937Z,102037.50
2023-03-20T05:00:45.469Z,102030.53
2023-03-20T05:02:50.355Z,102034.00
2023-03-20T05:04:55.037Z,102031.44
2023-03-20T05:06:59.663Z,102036.66
2023-03-20T05:09:04.541Z,102023.56
2023-03-20T05:11:10.633Z,102027.91
2023-03-20T05:13:15.589Z,102027.03
2023-03-20T05:15:20.816Z,102036.59
2023-03-20T05:17:28.127Z,102041.84
2023-03-20T05:19:32.947Z,102044.44
2023-03-20T05:21:37.712Z,102044.41
2023-03-20T05:23:42.549Z,102041.84
2023-03-20T05:25:47.758Z,102047.03
2023-03-20T05:27:52.603Z,102042.69
2023-03-20T05:29:57.333Z,102039.22
2023-03-20T05:32:01.956Z,102049.66
2023-03-20T05:34:09.151Z,102046.16
2023-03-20T05:36:16.454Z,102041.81
2023-03-20T05:38:22.794Z,102042.69
2023-03-20T05:40:27.651Z,102042.66
2023-03-20T05:42:32.482Z,102049.63
2023-03-20T05:44:37.094Z,102049.63
2023-03-20T05:46:44.074Z,102044.44
2023-03-20T05:48:49.286Z,102051.38
2023-03-20T05:50:56.613Z,102049.66
2023-03-20T05:53:01.804Z,102040.94
2023-03-20T05:55:07.568Z,102044.41
2023-03-20T05:57:12.301Z,102051.38
2023-03-20T05:59:17.208Z,102050.50
2023-03-20T06:01:22.738Z,102054.84
2023-03-20T06:03:27.537Z,102059.22
2023-03-20T06:05:32.252Z,102062.66
2023-03-20T06:07:40.561Z,102064.44
2023-03-20T06:09:48.475Z,102069.63
2023-03-20T06:11:53.261Z,102067.03
2023-03-20T06:13:58.777Z,102073.94
2023-03-20T06:16:03.627Z,102069.63
2023-03-20T06:18:08.633Z,102073.94
2023-03-20T06:20:18.032Z,102080.06
2023-03-20T06:22:22.829Z,102078.31
2023-03-20T06:24:31.167Z,102073.09
2023-03-20T06:26:37.584Z,102081.78
2023-03-20T06:28:42.672Z,102085.25
2023-03-20T06:30:47.574Z,102089.59
2023-03-20T06:32:53.172Z,102086.97
2023-03-20T06:34:57.810Z,102081.72
2023-03-20T06:37:04.545Z,102085.25
2023-03-20T06:39:11.864Z,102080.00
2023-03-20T06:41:33.761Z,102084.34
2023-03-20T06:43:39.753Z,102087.81
2023-03-20T06:45:44.779Z,102082.56
2023-03-20T06:47:50.050Z,102086.06
2023-03-20T06:49:54.787Z,102087.81
2023-03-20T06:51:59.507Z,102093.03
2023-03-20T06:54:06.754Z,102102.59
2023-03-20T06:56:14.880Z,102095.63
2023-03-20T06:58:22.441Z,102102.59
2023-03-20T07:00:27.637Z,102096.50
2023-03-20T07:02:32.613Z,102096.50
2023-03-20T07:04:37.459Z,102089.50
2023-03-20T07:06:42.748Z,102092.13
2023-03-20T07:08:47.466Z,102091.22
2023-03-20T07:10:52.528Z,102096.44
2023-03-20T07:12:57.610Z,102100.81
2023-03-20T07:15:05.950Z,102096.44
2023-03-20T07:17:11.831Z,102093.78
2023-03-20T07:19:16.554Z,102093.78
2023-03-20T07:21:24.764Z,102092.03
2023-03-20T07:23:29.387Z,102093.72
2023-03-20T07:25:42.112Z,102093.72
2023-03-20T07:27:50.909Z,102097.19
2023-03-20T07:29:55.906Z,102098.91
2023-03-20T07:32:04.408Z,102100.66
2023-03-20T07:34:09.195Z,102097.16
2023-03-20T07:36:16.665Z,102105.00
2023-03-20T07:38:21.343Z,102105.00
2023-03-20T07:40:26.055Z,102106.72
2023-03-20T07:42:30.900Z,102108.47
2023-03-20T07:44:35.794Z,102111.97
2023-03-20T07:46:41.009Z,102108.50
2023-03-20T07:48:48.313Z,102113.72
2023-03-20T07:50:53.310Z,102112.88
2023-03-20T07:52:58.292Z,102108.50
2023-03-20T07:55:03.103Z,102108.50
2023-03-20T07:57:07.864Z,102108.50
2023-03-20T07:59:12.991Z,102114.56
2023-03-20T08:01:18.012Z,102112.84
2023-03-20T08:03:22.749Z,102112.88
2023-03-20T08:05:32.564Z,102118.06
2023-03-20T08:07:37.356Z,102118.94
2023-03-20T08:09:42.411Z,102116.31
2023-03-20T08:11:47.661Z,102116.34
2023-03-20T08:13:52.434Z,102112.00
2023-03-20T08:15:57.516Z,102108.53
2023-03-20T08:18:02.219Z,102105.91
2023-03-20T08:20:07.961Z,102110.28
2023-03-20T08:22:15.324Z,102108.53
2023-03-20T08:24:20.570Z,102110.28
2023-03-20T08:26:25.654Z,102117.22
2023-03-20T08:28:46.286Z,102112.88
2023-03-20T08:30:52.080Z,102117.16
2023-03-20T08:32:58.402Z,102110.16
2023-03-20T08:35:03.168Z,102103.16
2023-03-20T08:37:08.232Z,102104.00
2023-03-20T08:39:18.370Z,102109.31
2023-03-20T08:41:23.153Z,102111.94
2023-03-20T08:43:27.824Z,102111.00
2023-03-20T08:45:32.487Z,102109.28
2023-03-20T08:47:40.167Z,102108.38
2023-03-20T08:49:45.265Z,102103.16
2023-03-20T08:51:50.147Z,102110.06
2023-03-20T08:53:54.993Z,102109.97
2023-03-20T08:56:02.480Z,102103.09
2023-03-20T08:58:07.302Z,102102.22
2023-03-20T09:00:15.721Z,102099.59
2023-03-20T09:02:20.499Z,102096.88
2023-03-20T09:04:25.796Z,102099.47
2023-03-20T09:06:31.225Z,102097.78
2023-03-20T09:08:36.104Z,102103.88
2023-03-20T09:10:41.064Z,102096.00
2023-03-20T09:12:48.459Z,102094.25
2023-03-20T09:14:53.200Z,102099.47
2023-03-20T09:16:58.014Z,102102.03
2023-03-20T09:19:02.739Z,102099.56
2023-03-20T09:21:12.033Z,102109.03
2023-03-20T09:23:16.874Z,102104.69
2023-03-20T09:25:24.695Z,102109.94
2023-03-20T09:27:29.910Z,102101.19
2023-03-20T09:29:37.344Z,102107.25
2023-03-20T09:31:44.084Z,102105.50
2023-03-20T09:33:50.322Z,102102.03
2023-03-20T09:35:55.070Z,102105.34
2023-03-20T09:37:59.763Z,102100.13
2023-03-20T09:40:05.815Z,102110.53
2023-03-20T09:42:26.085Z,102112.22
2023-03-20T09:44:49.061Z,102094.63
2023-03-20T09:47:20.189Z,102099.06
2023-03-20T09:49:37.022Z,102104.28
2023-03-20T09:51:48.006Z,102106.78
2023-03-20T09:53:59.885Z,102109.38
2023-03-20T09:56:06.078Z,102104.19
2023-03-20T09:58:18.346Z,102105.94
2023-03-20T10:00:31.379Z,102099.88
2023-03-20T10:02:42.516Z,102097.16
2023-03-20T10:04:50.310Z,102101.38
2023-03-20T10:06:57.740Z,102100.53
2023-03-20T10:09:05.302Z,102096.06
2023-03-20T10:11:28.009Z,102097.81
2023-03-20T10:13:52.402Z,102104.75
2023-03-20T10:16:07.026Z,102097.03
2023-03-20T10:18:21.514Z,102100.44
2023-03-20T10:20:35.023Z,102093.41
2023-03-20T10:22:46.089Z,102088.13
2023-03-20T10:24:57.111Z,102079.56
2023-03-20T10:27:07.986Z,102085.84
2023-03-20T10:29:23.559Z,102086.50
2023-03-20T10:31:43.226Z,102082.94
2023-03-20T10:34:00.643Z,102070.63
2023-03-20T10:36:21.715Z,102084.50
2023-03-20T10:38:34.602Z,102081.09
2023-03-20T10:40:41.808Z,102079.34
2023-03-20T10:42:50.851Z,102078.44
2023-03-20T10:44:59.742Z,102071.66
2023-03-20T10:47:10.328Z,102078.78
2023-03-20T10:49:21.276Z,102067.47
2023-03-20T10:51:30.659Z,102062.00
2023-03-20T10:53:40.249Z,102067.41
2023-03-20T10:55:47.618Z,102064.69
2023-03-20T10:57:59.013Z,102062.13
2023-03-20T11:00:05.294Z,102053.31
2023-03-20T11:02:19.702Z,102050.59
2023-03-20T11:04:25.212Z,102054.09
2023-03-20T11:06:34.677Z,102054.22
2023-03-20T11:08:46.740Z,102044.56
2023-03-20T11:11:02.371Z,102050.50
2023-03-20T11:13:25.741Z,102042.66
2023-03-20T11:15:31.021Z,102047.97
2023-03-20T11:17:38.417Z,102038.47
2023-03-20T11:19:44.882Z,102048.03
2023-03-20T11:21:52.346Z,102033.88
2023-03-20T11:23:57.625Z,102032.06
2023-03-20T11:26:04.932Z,102045.03
2023-03-20T11:28:23.189Z,102041.56
2023-03-20T11:30:28.105Z,102038.28
2023-03-20T11:32:36.275Z,102041.84
2023-03-20T11:34:43.894Z,102040.75
2023-03-20T11:37:09.204Z,102042.31
2023-03-20T11:39:19.195Z,102029.47
2023-03-20T11:41:28.615Z,102038.22
2023-03-20T11:43:41.538Z,102037.38
2023-03-20T11:45:49.070Z,102043.50
2023-03-20T11:47:58.551Z,102045.13
2023-03-20T11:50:09.329Z,102037.38
2023-03-20T11:52:17.067Z,102038.31
2023-03-20T11:54:25.303Z,102040.84
2023-03-20T11:56:33.061Z,102046.94
2023-03-20T11:58:40.641Z,102046.09
2023-03-20T12:00:46.255Z,102045.94
2023-03-20T12:02:53.106Z,102043.31
2023-03-20T12:05:12.711Z,102049.38
2023-03-20T12:07:23.778Z,102037.41
2023-03-20T12:09:54.824Z,102038.28
2023-03-20T12:12:04.065Z,102037.41
2023-03-20T12:14:16.507Z,102030.50
2023-03-20T12:16:25.793Z,102031.44
2023-03-20T12:18:39.189Z,102032.22
2023-03-20T12:20:52.748Z,102036.59
2023-03-20T12:23:04.429Z,102031.28
2023-03-20T12:25:20.215Z,102029.66
2023-03-20T12:27:32.911Z,102025.31
2023-03-20T12:29:46.766Z,102026.19
2023-03-20T12:31:55.176Z,102026.22
2023-03-20T12:34:04.441Z,102033.22
2023-03-20T12:36:16.753Z,102030.50
2023-03-20T12:38:29.873Z,102028.75
2023-03-20T12:40:39.360Z,102029.66
2023-03-20T12:43:00.281Z,102029.56
2023-03-20T12:45:13.618Z,102021.78
2023-03-20T12:47:36.175Z,102021.78
2023-03-20T12:49:53.154Z,102016.59
2023-03-20T12:52:09.925Z,102010.50
2023-03-20T12:54:27.296Z,102012.25
2023-03-20T12:56:51.741Z,102013.13
2023-03-20T12:59:02.334Z,102006.97
2023-03-20T13:01:15.988Z,102008.69
2023-03-20T13:03:37.223Z,102003.50
2023-03-20T13:05:50.611Z,102007.84
2023-03-20T13:08:27.654Z,102002.66
2023-03-20T13:10:40.131Z,102003.34
2023-03-20T13:13:01.860Z,101997.22
2023-03-20T13:15:21.662Z,101989.50
2023-03-20T13:17:34.877Z,101986.81
2023-03-20T13:19:51.968Z,101995.53
2023-03-20T13:22:00.696Z,101996.44
2023-03-20T13:24:23.374Z,101991.28
2023-03-20T13:26:39.257Z,101986.09
2023-03-20T13:29:03.262Z,101983.34
2023-03-20T13:31:20.400Z,101981.50
2023-03-20T13:33:46.528Z,101982.56
2023-03-20T13:36:00.485Z,101979.00
2023-03-20T13:38:12.692Z,101985.06
2023-03-20T13:40:25.991Z,101985.00
2023-03-20T13:42:35.739Z,101976.34
2023-03-20T13:44:45.875Z,101968.56
2023-03-20T13:46:53.425Z,101979.81
2023-03-20T13:49:05.273Z,101974.69
2023-03-20T13:51:20.187Z,101973.84
2023-03-20T13:53:34.386Z,101970.25
2023-03-20T13:55:50.557Z,101971.09
2023-03-20T13:58:21.344Z,101977.25
2023-03-20T14:00:34.346Z,101975.50
2023-03-20T14:02:49.485Z,101972.06
2023-03-20T14:05:00.573Z,101973.78
2023-03-20T14:07:05.598Z,101978.09
2023-03-20T14:09:29.704Z,101974.63
2023-03-20T14:11:41.700Z,101967.72
2023-03-20T14:13:54.601Z,101969.41
2023-03-20T14:16:07.410Z,101970.22
2023-03-20T14:18:19.156Z,101967.66
2023-03-20T14:20:35.132Z,101968.44
2023-03-20T14:22:44.753Z,101971.13
2023-03-20T14:25:09.060Z,101954.44
2023-03-20T14:27:36.810Z,101973.56
2023-03-20T14:29:57.665Z,101960.47
2023-03-20T14:32:12.015Z,101953.47
2023-03-20T14:34:25.469Z,101950.84
2023-03-20T14:36:45.432Z,101960.53
2023-03-20T14:39:13.095Z,101950.78
2023-03-20T14:41:28.961Z,101954.34
2023-03-20T14:44:00.741Z,101955.13
2023-03-20T14:46:13.824Z,101946.41
2023-03-20T14:48:38.816Z,101946.41
2023-03-20T14:51:00.510Z,101944.56
2023-03-20T14:53:25.272Z,101948.09
2023-03-20T14:59:29.832Z,101940.16
2023-03-20T15:02:12.185Z,101941.06
2023-03-20T15:04:56.598Z,101940.16
2023-03-20T15:07:03.898Z,101931.28
2023-03-20T15:09:12.202Z,101936.47
2023-03-20T15:11:17.953Z,101930.34
2023-03-20T15:13:26.798Z,101939.03
2023-03-20T15:15:35.546Z,101929.47
2023-03-20T15:17:42.932Z,101941.69
2023-03-20T15:19:52.615Z,101936.34
2023-03-20T15:21:58.279Z,101945.16
2023-03-20T15:24:04.372Z,101939.13
2023-03-20T15:26:11.066Z,101942.56
2023-03-20T15:28:22.720Z,101933.88
2023-03-20T15:30:29.049Z,101945.28
2023-03-20T15:32:38.844Z,101933.94
2023-03-20T15:34:47.557Z,101935.59
2023-03-20T15:36:55.782Z,101939.03
2023-03-20T15:39:14.160Z,101922.47
2023-03-20T15:41:30.338Z,101929.44
2023-03-20T15:43:38.439Z,101927.69
2023-03-20T15:45:46.640Z,101927.72
2023-03-20T15:47:54.133Z,101924.22
2023-03-20T15:50:02.414Z,101924.19
2023-03-20T15:52:11.100Z,101923.28
2023-03-20T15:54:19.988Z,101922.38
2023-03-20T15:56:29.419Z,101917.19
2023-03-20T15:58:34.717Z,101918.81
2023-03-20T16:00:45.279Z,101917.13
2023-03-20T16:02:53.670Z,101910.97
2023-03-20T16:04:58.710Z,101918.78
2023-03-20T16:07:06.919Z,101913.59
2023-03-20T16:09:13.357Z,101905.78
2023-03-20T16:11:21.955Z,101909.22
2023-03-20T16:13:27.855Z,101913.59
2023-03-20T16:15:34.235Z,101912.66
2023-03-20T16:17:41.770Z,101903.91
2023-03-20T16:19:49.671Z,101905.59
2023-03-20T16:21:56.529Z,101905.53
2023-03-20T16:24:02.736Z,101907.38
2023-03-20T16:26:11.970Z,101909.94
2023-03-20T16:28:19.402Z,101913.41
2023-03-20T16:30:30.196Z,101909.13
2023-03-20T16:32:41.277Z,101913.59
2023-03-20T16:34:54.359Z,101910.84
2023-03-20T16:37:02.300Z,101907.44
2023-03-20T16:39:12.340Z,101908.34
2023-03-20T16:41:21.782Z,101912.69
2023-03-20T16:43:30.728Z,101907.50
2023-03-20T16:45:38.559Z,101911.84
2023-03-20T16:47:43.614Z,101903.09
2023-03-20T16:50:24.435Z,101898.66
2023-03-20T16:52:31.564Z,101901.38
2023-03-20T16:54:46.176Z,101909.22
2023-03-20T16:56:56.150Z,101910.97
2023-03-20T16:59:02.299Z,101909.28
2023-03-20T17:01:09.949Z,101910.97
2023-03-20T17:03:20.354Z,101903.13
2023-03-20T17:05:38.492Z,101896.09
2023-03-20T17:07:48.026Z,101903.09
2023-03-20T17:10:00.218Z,101896.16
2023-03-20T17:12:08.305Z,101899.59
2023-03-20T17:14:21.052Z,101905.75
2023-03-20T17:16:27.353Z,101899.63
2023-03-20T17:18:32.681Z,101906.56
2023-03-20T17:20:40.315Z,101908.34
2023-03-20T17:22:45.308Z,101905.72
2023-03-20T17:24:50.014Z,101917.06
2023-03-20T17:26:57.830Z,101910.97
2023-03-20T17:29:02.566Z,101910.97
2023-03-20T17:31:07.954Z,101904.00
2023-03-20T17:33:16.547Z,101910.13
2023-03-20T17:35:21.298Z,101908.41
2023-03-20T17:37:30.327Z,101911.03
2023-03-20T17:39:35.333Z,101921.47
2023-03-20T17:41:42.162Z,101918.03
2023-03-20T17:43:53.112Z,101922.38
2023-03-20T17:45:58.032Z,101925.00
2023-03-20T17:48:02.769Z,101924.16
2023-03-20T17:50:08.641Z,101926.78
2023-03-20T17:52:17.737Z,101929.34
2023-03-20T17:54:25.554Z,101926.78
2023-03-20T17:56:32.811Z,101931.09
2023-03-20T17:58:37.960Z,101932.78
2023-03-20T18:00:42.660Z,101925.84
2023-03-20T18:02:47.454Z,101926.78
2023-03-20T18:04:52.655Z,101922.38
2023-03-20T18:06:57.580Z,101934.63
2023-03-20T18:09:04.302Z,101934.63
2023-03-20T18:11:13.569Z,101935.47
2023-03-20T18:13:21.251Z,101932.00
2023-03-20T18:15:26.599Z,101945.97
2023-03-20T18:17:31.501Z,101938.97
2023-03-20T18:19:37.292Z,101946.88
2023-03-20T18:21:42.073Z,101947.75
2023-03-20T18:23:50.776Z,101930.28
2023-03-20T18:25:55.740Z,101943.41
2023-03-20T18:28:05.045Z,101940.78
2023-03-20T18:30:19.336Z,101951.22
2023-03-20T18:32:24.107Z,101941.63
2023-03-20T18:34:28.939Z,101942.50
2023-03-20T18:36:34.287Z,101941.59
2023-03-20T18:38:39.236Z,101942.50
2023-03-20T18:40:47.374Z,101947.78
2023-03-20T18:42:52.458Z,101943.47
2023-03-20T18:45:00.473Z,101944.38
2023-03-20T18:47:05.236Z,101945.19
2023-03-20T18:49:10.513Z,101947.84
2023-03-20T18:51:17.866Z,101947.84
2023-03-20T18:53:22.878Z,101940.84
2023-03-20T18:55:29.528Z,101939.94
2023-03-20T18:57:36.719Z,101932.97
2023-03-20T18:59:41.508Z,101932.13
2023-03-20T19:01:49.563Z,101942.59
2023-03-20T19:03:55.758Z,101941.66
2023-03-20T19:06:02.363Z,101943.47
2023-03-20T19:08:07.670Z,101941.69
2023-03-20T19:10:28.553Z,101934.75
2023-03-20T19:12:33.377Z,101933.84
2023-03-20T19:14:44.025Z,101929.44
2023-03-20T19:16:51.559Z,101926.81
2023-03-20T19:18:58.881Z,101924.19
2023-03-20T19:21:04.605Z,101931.28
2023-03-20T19:23:17.857Z,101921.63
2023-03-20T19:25:24.775Z,101928.53
2023-03-20T19:27:29.968Z,101921.59
2023-03-20T19:29:35.221Z,101919.00
2023-03-20T19:31:41.766Z,101928.59
2023-03-20T19:33:59.961Z,101919.91
2023-03-20T19:36:05.000Z,101922.50
2023-03-20T19:38:11.477Z,101918.13
2023-03-20T19:40:27.849Z,101914.63
2023-03-20T19:42:59.799Z,101911.09
2023-03-20T19:45:02.719Z,101916.28
2023-03-20T19:47:07.967Z,101914.50
2023-03-20T19:49:30.230Z,101911.03
2023-03-20T19:51:35.571Z,101915.44
2023-03-20T19:53:40.725Z,101904.94
2023-03-20T19:55:47.642Z,101906.56
2023-03-20T19:57:54.619Z,101903.09
2023-03-20T20:00:43.820Z,101900.50
2023-03-20T20:02:24.772Z,101900.50
2023-03-20T20:04:39.308Z,101892.63
2023-03-20T20:06:47.972Z,101903.09
2023-03-20T20:08:53.949Z,101907.44
2023-03-20T20:10:58.925Z,101900.50
2023-03-20T20:13:03.766Z,101899.63
2023-03-20T20:15:10.283Z,101904.03
2023-03-20T20:17:15.531Z,101894.44
2023-03-20T20:19:20.930Z,101891.88
2023-03-20T20:22:17.062Z,101904.09
2023-03-20T20:23:57.206Z,101900.56
2023-03-20T20:26:05.153Z,101898.78
2023-03-20T20:28:13.300Z,101897.03
2023-03-20T20:30:20.873Z,101891.81
2023-03-20T20:32:28.056Z,101897.94
2023-03-20T20:39:27.268Z,101896.16
2023-03-20T20:41:33.174Z,101891.84
2023-03-20T20:44:11.586Z,101892.69
2023-03-20T20:46:02.734Z,101893.59
2023-03-20T20:48:10.423Z,101890.91
2023-03-20T20:50:16.932Z,101894.47
2023-03-20T20:52:24.362Z,101889.22
2023-03-20T20:54:29.640Z,101891.84
2023-03-20T20:56:35.948Z,101890.13
2023-03-20T20:58:40.620Z,101891.81
2023-03-20T21:00:52.572Z,101889.22
2023-03-20T21:02:59.840Z,101886.66
2023-03-20T21:05:04.667Z,101884.91
2023-03-20T21:07:11.376Z,101883.16
2023-03-20T21:09:19.512Z,101882.28
2023-03-20T21:11:25.384Z,101884.09
2023-03-20T21:13:30.503Z,101881.50
2023-03-20T21:15:36.720Z,101890.25
2023-03-20T21:17:50.424Z,101884.03
2023-03-20T21:20:04.347Z,101885.00
2023-03-20T21:22:10.256Z,101881.47
2023-03-20T21:24:31.707Z,101885.91
2023-03-20T21:26:41.901Z,101884.13
2023-03-20T21:28:47.236Z,101889.34
2023-03-20T21:31:20.860Z,101885.91
2023-03-20T21:33:21.332Z,101883.28
2023-03-20T21:35:26.660Z,101883.25
2023-03-20T21:39:57.000Z,101881.59
2023-03-20T21:42:07.872Z,101875.47
2023-03-20T21:44:17.590Z,101883.34
2023-03-20T21:54:43.776Z,101873.81
2023-03-20T21:56:48.842Z,101872.09
2023-03-20T21:59:20.772Z,101876.47
2023-03-20T22:01:45.927Z,101873.84
2023-03-20T22:04:06.411Z,101867.75
2023-03-20T22:09:30.964Z,101866.91
2023-03-20T22:14:13.428Z,101862.50
2023-03-20T22:19:18.456Z,101856.38
2023-03-20T22:21:29.756Z,101869.47
2023-03-20T22:26:04.744Z,101866.00
2023-03-20T22:28:38.564Z,101876.47
2023-03-20T22:33:39.080Z,101866.03
2023-03-20T22:36:02.707Z,101866.00
2023-03-20T22:42:55.842Z,101858.19
2023-03-20T22:45:02.270Z,101856.38
2023-03-20T22:47:10.774Z,101861.63
2023-03-20T22:49:21.131Z,101853.75
2023-03-20T22:51:34.057Z,101852.03
2023-03-20T22:53:39.212Z,101852.88
2023-03-20T22:55:45.837Z,101852.88
2023-03-20T22:58:05.868Z,101848.38
2023-03-20T23:00:16.402Z,101841.47
2023-03-20T23:02:21.184Z,101843.19
2023-03-20T23:04:30.100Z,101838.88
2023-03-20T23:06:35.459Z,101839.72
2023-03-20T23:08:49.076Z,101837.97
2023-03-20T23:10:56.920Z,101836.19
2023-03-20T23:13:02.242Z,101830.09
2023-03-20T23:15:08.056Z,101843.13
2023-03-20T23:17:12.963Z,101837.91
2023-03-20T23:19:17.628Z,101837.91
2023-03-20T23:21:26.758Z,101842.28
2023-03-20T23:23:34.335Z,101839.72
2023-03-20T23:25:48.564Z,101840.50
2023-03-20T23:27:53.194Z,101839.72
2023-03-20T23:29:57.964Z,101833.56
2023-03-20T23:32:02.733Z,101843.19
2023-03-20T23:34:09.750Z,101830.94
2023-03-20T23:36:28.841Z,101837.97
2023-03-20T23:38:43.524Z,101823.94
2023-03-20T23:40:51.968Z,101832.63
2023-03-20T23:42:56.748Z,101817.72
2023-03-20T23:45:16.995Z,101834.28
2023-03-20T23:47:27.598Z,101821.19
2023-03-20T23:49:35.055Z,101819.47
2023-03-20T23:51:42.506Z,101813.38
2023-03-20T23:53:53.583Z,101821.31
2023-03-20T23:56:09.705Z,101817.72
2023-03-20T23:58:17.744Z,101816.84
